Tiempo atmosférico en la estación meteorológica de Valleseco, Las Palmas (900 m.)



Fecha
DESCASC
Temp. máxima en grados centígrados (hora)
DESCASC
Temp. mínima en grados centígrados (hora)
DESCASC
Temp. media en grados centígrados
DESCASC
Racha de viento máxima en m/sg (hora)
DESCASC
Velocidad máxima media en intervalos de 10 minutos(hora)
DESCASC
Precipitaciones diarias en mm
DESCASC
Precipitaciones de 00:00 a 06:00 en mm
DESCASC
Precipitaciones de 06:00 a 12:00 en mm
DESCASC
Precipitaciones de 12:00 a 18:00 en mm
DESCASC
Precipitaciones de 18:00 a 24:00 en mm
DESCASC
14-12-2019 15 (12:50) 10.3 (00:10) 12.7 5.28 (02:30) 3.33 (02:30) 0.6 0.2 0.2 0.2 0
13-12-2019 12.5 (14:10) 8.8 (07:50) 10.7 6.39 (05:00) 3.61 (01:50) 0.2 0.2 0 0 0
12-12-2019 12.8 (10:10) 9.2 (22:30) 11 9.44 (11:50) 5.28 (11:50) 6.2 0 0.2 5.6 0.4
11-12-2019 13.5 (13:30) 10 (00:00) 11.8 9.17 (05:00) 6.94 (05:00) 0.2 0.2 0 0 0
10-12-2019 16.5 (14:40) 8.8 (00:00) 12.7 7.78 (09:20) 5.83 (09:20) 0 0 0 0 0
09-12-2019 14.8 (16:10) 9.7 (00:00) 12.3 8.61 (01:50) 4.72 (09:20) 0 0 0 0 0
08-12-2019 12.9 (13:00) 10.2 (00:00) 11.5 10.83 (00:20) 4.72 (00:20) 0 0 0 0 0
07-12-2019 12.8 (12:40) 10 (00:00) 11.4 11.11 (23:20) 6.11 (23:20) 0.2 0 0.2 0 0
06-12-2019 12.1 (13:10) 9.1 (00:00) 10.6 12.78 (01:10) 7.5 (00:10) 14.4 9.4 1 2.8 1.2
05-12-2019 11.8 (01:40) 8.3 (00:00) 10.1 14.72 (01:40) 7.78 (05:40) 59.6 31.2 2 13.4 13
04-12-2019 14.9 (14:50) 9.3 (00:00) 12.1 11.11 (20:20) 7.22 (21:30) 2.4 1.4 0.4 0.6 0
03-12-2019 13.9 (11:50) 9.8 (00:00) 11.8 10.83 (04:00) 6.39 (06:00) 2.2 1.6 0.2 0.4 0
02-12-2019 13.6 (12:20) 10.2 (00:00) 11.9 10.83 (20:40) 6.11 (23:20) 8 0.2 2.6 0 5.2
01-12-2019 19.4 (14:20) 10.6 (00:00) 15 5.28 (09:20) 3.89 (07:10) 0 0 0 0 0
30-11-2019 25.2 (13:20) 15 (00:00) 20.1 10 (05:00) 6.67 (04:40) 0 0 0 0 0
29-11-2019 25.3 (16:40) 13.8 (00:00) 19.5 14.44 (10:20) 10.28 (09:30) 0 0 0 0 0
28-11-2019 19.4 (11:50) 10.3 (00:00) 14.8 7.5 (11:20) 5.83 (05:50) 0 0 0 0 0
27-11-2019 17.7 (16:10) 11.9 (00:00) 14.8 5.56 (12:00) 3.61 (11:30) 0 0 0 0 0
26-11-2019 19.7 (14:00) 11.5 (00:00) 15.6 6.11 (09:50) 4.72 (09:50) 0.2 0.2 0 0 0
25-11-2019 16.7 (13:10) 9.8 (00:00) 13.3 5.56 (10:20) 3.61 (10:50) 0 0 0 0 0
24-11-2019 17.2 (15:00) 11 (00:00) 14.1 6.11 (07:50) 2.78 (23:40) 2.4 0.4 2 0 0
23-11-2019 15.8 (13:40) 12.3 (00:00) 14.1 9.17 (16:00) 5.28 (02:00) 7 0 3 3.8 0.2
22-11-2019 19.4 (16:50) 13.3 (00:00) 16.3 8.61 (03:10) 5 (04:00) 2.6 0 2.6 0 0
21-11-2019 16.8 (17:00) 11 (00:00) 13.9 9.17 (20:50) 5.83 (21:10) 0 0 0 0 0
20-11-2019 18.5 (12:40) 10 (00:00) 14.3 6.11 (03:50) 4.17 (03:50) 0.2 0.2 0 0 0
19-11-2019 14.7 (16:40) 10.1 (00:00) 12.4 7.22 (11:10) 4.17 (13:10) 4.6 0.2 1.4 3 0
18-11-2019 17.1 (15:00) 9.3 (00:00) 13.2 5.83 (13:20) 3.06 (12:10) 0.2 0 0.2 0 0
17-11-2019 12.5 (12:30) 9.4 (00:00) 10.9 8.61 (14:00) 3.61 (11:20) 8.8 3 3.6 1.8 0.4
16-11-2019 14.1 (14:40) 9.8 (00:00) 12 12.22 (04:30) 5.83 (00:40) 8.4 3.6 2 0.2 2.6

Gráficas

Temp. máximas Temp. mínimas Temp. medias Precipitaciones Rachas de viento máximas Velocidades máximas media en intervalos de 10 minutos

Datos horarios

Fecha y hora oficial Temperatura (ºC) Velocidad del viento (km/h) Dirección del viento Racha (km/h) Dirección de racha Precipitación (mm) Presión (hPa) Tendencia (hPa) Humedad (%)
2019-12-15 23:00:00 10.5 10 Oeste 16 Noroeste 0 -- -- 92
2019-12-15 22:00:00 10.1 3 Nordeste 19 Oeste 0 -- -- 92
2019-12-15 21:00:00 10.3 10 Noroeste 18 Noroeste 0 -- -- 96
2019-12-15 20:00:00 10.2 8 Noroeste 20 Oeste 0 -- -- 96
2019-12-15 19:00:00 10.5 6 Oeste 12 Oeste 0 -- -- 98
2019-12-15 18:00:00 12 7 Noroeste 13 Oeste 0 -- -- 95
2019-12-15 17:00:00 13.5 3 Noroeste 9 Noroeste 0 -- -- 90
2019-12-15 16:00:00 13.9 3 Norte 13 Norte 0 -- -- 88
2019-12-15 15:00:00 15 6 Norte 12 Norte 0 -- -- 82
2019-12-15 14:00:00 15.6 5 Norte 12 Norte 0 -- -- 78
2019-12-15 13:00:00 14 3 Noroeste 9 Norte 0 -- -- 81
2019-12-15 12:00:00 14.5 3 Nordeste 7 Este 0 -- -- 77
2019-12-15 11:00:00 13.3 3 Norte 8 Nordeste 0 -- -- 83
2019-12-15 10:00:00 11.7 4 Sudeste 7 Este 0 -- -- 90
2019-12-15 09:00:00 10 4 Oeste 8 Oeste 0 -- -- 96
2019-12-15 08:00:00 9.3 3 Oeste 14 Sudoeste 0 -- -- 96
2019-12-15 07:00:00 9.3 9 Sudeste 21 Sudoeste 0 -- -- 97
2019-12-15 06:00:00 9.4 4 Oeste 13 Oeste 0 -- -- 97
2019-12-15 05:00:00 9.4 7 Oeste 10 Oeste 0 -- -- 95
2019-12-15 04:00:00 9.4 7 Sur 10 Sur 0 -- -- 99
2019-12-15 03:00:00 9.4 3 Sudeste 7 Sudeste 0 -- -- 99
2019-12-15 02:00:00 9.9 6 Sur 8 Sur 0 -- -- 99
2019-12-15 01:00:00 9.9 7 Sudeste 9 Sudeste 0 -- -- 100
2019-12-15 00:00:00 10.7 4 Este 9 Este 0 -- -- 100
2019-12-14 23:00:00 10.9 3 Sudeste 9 Este 0 -- -- 100
2019-12-14 22:00:00 11.1 6 Sudeste 8 Sudeste 0 -- -- 100
2019-12-14 21:00:00 11.6 4 Norte 12 Noroeste 0 -- -- 100
2019-12-14 20:00:00 11.7 4 Oeste 13 Norte 0 -- -- 100
2019-12-14 19:00:00 11.7 6 Norte 12 Noroeste 0 -- -- 99
2019-12-14 18:00:00 11.8 4 Noroeste 10 Noroeste 0.2 -- -- 99
2019-12-14 17:00:00 12.1 0 Calma 11 Noroeste 0 -- -- 98
2019-12-14 16:00:00 13.2 3 Norte 8 Norte 0 -- -- 96
2019-12-14 15:00:00 12.9 4 Noroeste 11 Norte 0 -- -- 93
2019-12-14 14:00:00 13.7 3 Norte 13 Nordeste 0 -- -- 92
2019-12-14 13:00:00 14.8 4 Este 13 Sudeste 0 -- -- 83
2019-12-14 12:00:00 13.8 8 Este 17 Sudeste 0 -- -- 87
2019-12-14 11:00:00 13.1 9 Sudeste 17 Sudeste 0 -- -- 89
2019-12-14 10:00:00 12 7 Sur 14 Sur 0 -- -- 95
2019-12-14 09:00:00 11.2 2 Sudeste 5 Noroeste 0 -- -- 99
2019-12-14 08:00:00 10.6 6 Sur 12 Sur 0.2 -- -- 100
2019-12-14 07:00:00 10.4 2 Norte 10 Este 0 -- -- 99
2019-12-14 06:00:00 10.6 5 Este 12 Este 0 -- -- 100
2019-12-14 05:00:00 10.5 6 Sudeste 15 Este 0 -- -- 99
2019-12-14 04:00:00 10.6 8 Sur 19 Sudeste 0.2 -- -- 98
2019-12-14 03:00:00 10.6 10 Sur 19 Sudeste 0 -- -- 89
2019-12-14 02:00:00 10.3 7 Sudeste 17 Este 0 -- -- 96
2019-12-14 01:00:00 10.3 10 Sudeste 18 Este 0 -- -- 92
2019-12-14 00:00:00 10.4 8 Este 14 Sudeste 0 -- -- 96
2019-12-13 23:00:00 10.3 9 Sudeste 18 Sudeste 0 -- -- 95
2019-12-13 22:00:00 10.3 4 Sudeste 15 Este 0 -- -- 97
2019-12-13 21:00:00 10.6 6 Nordeste 17 Nordeste 0 -- -- 97
2019-12-13 20:00:00 10.5 5 Sudeste 14 Este 0 -- -- 94
2019-12-13 19:00:00 10.3 8 Sudeste 14 Nordeste 0 -- -- 96
2019-12-13 18:00:00 10.5 10 Sudeste 17 Este 0 -- -- 93
2019-12-13 17:00:00 10.8 7 Este 15 Este 0 -- -- 92
2019-12-13 16:00:00 11.1 9 Este 18 Sudeste 0 -- -- 95
2019-12-13 15:00:00 12.3 6 Este 20 Sudeste 0 -- -- 86
2019-12-13 14:00:00 12.3 13 Sudeste 23 Este 0 -- -- 82
2019-12-13 13:00:00 11.8 7 Sudeste 15 Este 0 -- -- 89
2019-12-13 12:00:00 11.5 8 Sudeste 17 Sudeste 0 -- -- 89
2019-12-13 11:00:00 10.4 6 Este 22 Sur 0 -- -- 93
2019-12-13 10:00:00 9.8 7 Este 14 Este 0 -- -- 97
2019-12-13 09:00:00 9.2 5 Sudeste 10 Sudeste 0 -- -- 97
2019-12-13 08:00:00 8.9 4 Sudeste 19 Nordeste 0 -- -- 99
2019-12-13 07:00:00 9 4 Sudeste 16 Este 0 -- -- 99
2019-12-13 06:00:00 9.2 5 Este 16 Sudeste 0 -- -- 99
2019-12-13 05:00:00 9.4 10 Este 23 Sudeste 0 -- -- 98
2019-12-13 04:00:00 9.5 6 Sudeste 17 Sudeste 0 -- -- 95
2019-12-13 03:00:00 9.3 12 Este 21 Este 0 -- -- 97
2019-12-13 02:00:00 9 11 Sudeste 19 Este 0.2 -- -- 98
2019-12-13 01:00:00 9.1 8 Sudeste 19 Este 0 -- -- 99
2019-12-13 00:00:00 9.2 9 Sudeste 23 Este 0 -- -- 100
2019-12-12 23:00:00 9.2 9 Este 18 Este 0 -- -- 100
2019-12-12 22:00:00 9.8 8 Este 15 Este 0 -- -- 100
2019-12-12 21:00:00 9.6 8 Sudeste 17 Nordeste 0.2 -- -- 100
2019-12-12 20:00:00 9.7 9 Nordeste 30 Nordeste 0 -- -- 100
2019-12-12 19:00:00 9.9 14 Nordeste 26 Nordeste 0.2 -- -- 100
2019-12-12 18:00:00 10.5 11 Nordeste 31 Norte 0.8 -- -- 100
2019-12-12 17:00:00 11.3 8 Nordeste 27 Este 1.2 -- -- 100
2019-12-12 16:00:00 11.5 9 Este 26 Nordeste 0.8 -- -- 100
2019-12-12 15:00:00 11.8 12 Nordeste 32 Nordeste 1.4 -- -- 100
2019-12-12 14:00:00 12.3 6 Nordeste 26 Este 1.4 -- -- 99
2019-12-12 13:00:00 12.4 12 Este 28 Sudeste 0 -- -- 99
2019-12-12 12:00:00 12.5 15 Este 34 Este 0.2 -- -- 99
2019-12-12 11:00:00 12.2 13 Este 23 Este 0 -- -- 93
2019-12-12 10:00:00 12.5 16 Sudeste 26 Sudeste 0 -- -- 89
2019-12-12 09:00:00 11.8 9 Sudeste 22 Sudeste 0 -- -- 95
2019-12-12 08:00:00 10.2 12 Sudeste 19 Sudeste 0 -- -- 96
2019-12-12 07:00:00 10 8 Sudeste 23 Sudeste 0 -- -- 94
2019-12-12 06:00:00 10.2 7 Este 16 Este 0 -- -- 95
2019-12-12 05:00:00 9.8 11 Sudeste 19 Sudeste 0 -- -- 95
2019-12-12 04:00:00 9.9 13 Sudeste 21 Sudeste 0 -- -- 95
2019-12-12 03:00:00 10 15 Sudeste 23 Sudeste 0 -- -- 94
2019-12-12 02:00:00 10.2 8 Sudeste 21 Este 0 -- -- 95
2019-12-12 01:00:00 10.5 10 Sudeste 16 Sudeste 0 -- -- 95
2019-12-12 00:00:00 10.5 6 Sudeste 14 Sudeste 0 -- -- 96
2019-12-11 23:00:00 10.3 8 Sudeste 17 Sudeste 0 -- -- 96
2019-12-11 22:00:00 10.2 9 Sudeste 15 Este 0 -- -- 98
2019-12-11 21:00:00 10.2 7 Este 15 Este 0 -- -- 99
2019-12-11 20:00:00 10.7 8 Este 16 Este 0 -- -- 99
2019-12-11 19:00:00 10.7 10 Este 23 Este 0 -- -- 99
2019-12-11 18:00:00 11.3 8 Este 17 Este 0 -- -- 98
2019-12-11 17:00:00 11.8 8 Sudeste 18 Este 0 -- -- 97
2019-12-11 16:00:00 12.3 8 Este 15 Este 0 -- -- 95
2019-12-11 15:00:00 12.7 7 Este 17 Este 0 -- -- 94
2019-12-11 14:00:00 12.9 7 Este 21 Este 0 -- -- 95
2019-12-11 13:00:00 13.1 9 Este 21 Sudeste 0 -- -- 91
2019-12-11 12:00:00 12.5 12 Este 25 Este 0 -- -- 97
2019-12-11 11:00:00 12.6 14 Sudeste 20 Sudeste 0 -- -- 97
2019-12-11 10:00:00 11.7 10 Este 18 Sudeste 0 -- -- 99
2019-12-11 09:00:00 11.4 10 Sudeste 22 Sudeste 0 -- -- 96
2019-12-11 08:00:00 11 15 Sudeste 23 Sudeste 0 -- -- 99
2019-12-11 07:00:00 10.9 16 Sudeste 27 Sudeste 0 -- -- 98
2019-12-11 06:00:00 10.4 19 Sudeste 32 Sudeste 0 -- -- 98
2019-12-11 05:00:00 10.9 25 Sudeste 33 Este 0 -- -- 98
2019-12-11 04:00:00 11 21 Sudeste 29 Sudeste 0 -- -- 100
2019-12-11 03:00:00 11.3 17 Sudeste 29 Este 0 -- -- 100
2019-12-11 02:00:00 11.3 11 Sudeste 18 Este 0 -- -- 100
2019-12-11 01:00:00 11.6 6 Este 19 Sudeste 0.2 -- -- 100
2019-12-11 00:00:00 11.8 14 Este 24 Sudeste 0 -- -- 99
2019-12-10 23:00:00 11.8 10 Sudeste 24 Este 0 -- -- 100
2019-12-10 22:00:00 12 14 Este 27 Sudeste 0 -- -- 99
2019-12-10 21:00:00 11.8 12 Sudeste 25 Este 0 -- -- 98
2019-12-10 20:00:00 11.8 7 Sudeste 16 Sudeste 0 -- -- 96
2019-12-10 19:00:00 11.4 9 Sudeste 18 Este 0 -- -- 97
2019-12-10 18:00:00 11.9 9 Este 15 Este 0 -- -- 95
2019-12-10 17:00:00 12.8 8 Este 17 Este 0 -- -- 90
2019-12-10 16:00:00 15.7 13 Este 21 Este 0 -- -- 79
2019-12-10 15:00:00 15.7 9 Este 21 Sudeste 0 -- -- 81
2019-12-10 14:00:00 15.8 12 Este 23 Este 0 -- -- 71
2019-12-10 13:00:00 15.9 15 Este 23 Sudeste 0 -- -- 77
2019-12-10 12:00:00 15 15 Este 24 Este 0 -- -- 78
2019-12-10 11:00:00 14.2 17 Sudeste 24 Este 0 -- -- 82
2019-12-10 10:00:00 12.3 18 Sudeste 28 Sudeste 0 -- -- 90
2019-12-10 09:00:00 10.6 18 Sudeste 23 Sudeste 0 -- -- 99
2019-12-10 08:00:00 9.3 16 Sudeste 22 Sudeste 0 -- -- 99
2019-12-10 07:00:00 9.5 14 Sudeste 21 Este 0 -- -- 98
2019-12-10 06:00:00 9 17 Sudeste 19 Sudeste 0 -- -- 97
2019-12-10 05:00:00 9.3 14 Sudeste 17 Sudeste 0 -- -- 96
2019-12-10 04:00:00 9.9 6 Sudeste 11 Sudeste 0 -- -- 95
2019-12-10 03:00:00 10 4 Sur 9 Norte 0 -- -- 98
2019-12-10 02:00:00 10 2 Sur 9 Este 0 -- -- 96
2019-12-10 01:00:00 9.5 8 Sudeste 12 Sudeste 0 -- -- 97
2019-12-10 00:00:00 9.7 10 Sudeste 13 Este 0 -- -- 98
2019-12-09 23:00:00 10.3 9 Este 17 Sudeste 0 -- -- 98
2019-12-09 22:00:00 9.9 9 Sudeste 15 Este 0 -- -- 97
2019-12-09 21:00:00 9.9 9 Sudeste 18 Sudeste 0 -- -- 97
2019-12-09 20:00:00 10.6 7 Este 14 Este 0 -- -- 98
2019-12-09 19:00:00 10.4 5 Este 9 Sudeste 0 -- -- 98
2019-12-09 18:00:00 11.3 3 Este 13 Este 0 -- -- 95
2019-12-09 17:00:00 13.4 8 Este 16 Este 0 -- -- 89
2019-12-09 16:00:00 14.2 10 Este 18 Sudeste 0 -- -- 87
2019-12-09 15:00:00 12.8 11 Este 18 Sudeste 0 -- -- 91
2019-12-09 14:00:00 13.1 8 Este 19 Este 0 -- -- 91
2019-12-09 13:00:00 13 6 Este 22 Sudeste 0 -- -- 97
2019-12-09 12:00:00 12.5 6 Este 21 Sudeste 0 -- -- 100
2019-12-09 11:00:00 12 11 Este 21 Este 0 -- -- 100
2019-12-09 10:00:00 11.2 7 Este 30 Este 0 -- -- 100
2019-12-09 09:00:00 10.9 12 Este 25 Este 0 -- -- 100
2019-12-09 08:00:00 10.9 13 Este 26 Este 0 -- -- 100
2019-12-09 07:00:00 10.8 10 Sudeste 29 Este 0 -- -- 100
2019-12-09 06:00:00 10.6 9 Sudeste 27 Sudeste 0 -- -- 100
2019-12-09 05:00:00 10.5 12 Sudeste 28 Este 0 -- -- 100
2019-12-09 04:00:00 10.4 14 Este 27 Sudeste 0 -- -- 100
2019-12-09 03:00:00 10.5 13 Este 26 Este 0 -- -- 100
2019-12-09 02:00:00 10.7 15 Este 31 Este 0 -- -- 100
2019-12-09 01:00:00 10.4 9 Este 26 Este 0 -- -- 100
2019-12-09 00:00:00 10.6 14 Este 29 Nordeste 0 -- -- 100
2019-12-08 23:00:00 10.8 9 Nordeste 28 Este 0 -- -- 100
2019-12-08 22:00:00 10.9 11 Este 25 Este 0 -- -- 100
2019-12-08 21:00:00 10.8 7 Nordeste 23 Sudeste 0 -- -- 100
2019-12-08 20:00:00 10.8 9 Este 21 Nordeste 0 -- -- 100
2019-12-08 19:00:00 10.7 9 Este 16 Este 0 -- -- 99
2019-12-08 18:00:00 10.8 5 Nordeste 23 Nordeste 0 -- -- 96
2019-12-08 17:00:00 11.6 5 Este 27 Nordeste 0 -- -- 94
2019-12-08 16:00:00 11.9 8 Nordeste 27 Nordeste 0 -- -- 96
2019-12-08 15:00:00 12.1 9 Nordeste 24 Nordeste 0 -- -- 92
2019-12-08 14:00:00 12.3 10 Nordeste 34 Norte 0 -- -- 89
2019-12-08 13:00:00 12.9 9 Nordeste 28 Nordeste 0 -- -- 90
2019-12-08 12:00:00 12.2 13 Nordeste 32 Norte 0 -- -- 97
2019-12-08 11:00:00 11.5 9 Nordeste 22 Norte 0 -- -- 99
2019-12-08 10:00:00 11.7 6 Este 28 Este 0 -- -- 100
2019-12-08 09:00:00 10.6 6 Este 17 Este 0 -- -- 100
2019-12-08 08:00:00 10.3 4 Este 19 Este 0 -- -- 100
2019-12-08 07:00:00 10.4 4 Nordeste 25 Este 0 -- -- 100
2019-12-08 06:00:00 10.4 9 Este 23 Nordeste 0 -- -- 100
2019-12-08 05:00:00 10.2 11 Nordeste 25 Nordeste 0 -- -- 100
2019-12-08 04:00:00 10.7 9 Nordeste 28 Nordeste 0 -- -- 100
2019-12-08 03:00:00 11.1 7 Norte 30 Nordeste 0 -- -- 100
2019-12-08 02:00:00 11 13 Norte 32 Nordeste 0 -- -- 100
2019-12-08 01:00:00 11.3 12 Este 39 Sudeste 0 -- -- 100
2019-12-08 00:00:00 11.4 12 Nordeste 40 Este 0 -- -- 100
2019-12-07 23:00:00 11.5 10 Nordeste 34 Norte 0 -- -- 100
2019-12-07 22:00:00 11.2 15 Nordeste 32 Nordeste 0 -- -- 100
2019-12-07 21:00:00 11.4 10 Nordeste 27 Nordeste 0 -- -- 100
2019-12-07 20:00:00 11.3 12 Nordeste 27 Nordeste 0 -- -- 100
2019-12-07 19:00:00 11.4 10 Nordeste 33 Norte 0 -- -- 100
2019-12-07 18:00:00 11.4 13 Norte 31 Norte 0 -- -- 100
2019-12-07 17:00:00 11.5 9 Norte 29 Norte 0 -- -- 100
2019-12-07 16:00:00 12.1 17 Norte 32 Norte 0 -- -- 100
2019-12-07 15:00:00 12.3 9 Nordeste 22 Nordeste 0 -- -- 100
2019-12-07 14:00:00 12.2 11 Norte 29 Nordeste 0 -- -- 98
2019-12-07 13:00:00 12.7 10 Norte 27 Norte 0 -- -- 100
2019-12-07 12:00:00 11.7 11 Norte 27 Norte 0.2 -- -- 100
2019-12-07 11:00:00 12.2 10 Norte 36 Norte 0 -- -- 100
2019-12-07 10:00:00 11.4 7 Norte 24 Nordeste 0 -- -- 100
2019-12-07 09:00:00 10.8 4 Oeste 23 Norte 0 -- -- 100
2019-12-07 08:00:00 10.7 9 Norte 19 Norte 0 -- -- 100
2019-12-07 07:00:00 10.4 7 Noroeste 17 Noroeste 0 -- -- 100
2019-12-07 06:00:00 10.5 5 Norte 16 Nordeste 0 -- -- 100
2019-12-07 05:00:00 10.1 4 Norte 15 Norte 0 -- -- 100
2019-12-07 04:00:00 10.1 6 Norte 17 Noroeste 0 -- -- 100
2019-12-07 03:00:00 10.4 7 Norte 17 Norte 0 -- -- 100
2019-12-07 02:00:00 10.4 6 Norte 17 Norte 0 -- -- 100
2019-12-07 01:00:00 10.3 5 Norte 31 Norte 0 -- -- 100
2019-12-07 00:00:00 10.7 5 Noroeste 22 Norte 0 -- -- 100
2019-12-06 23:00:00 10.7 13 Norte 23 Noroeste 0 -- -- 100
2019-12-06 22:00:00 10.6 13 Norte 30 Norte 0 -- -- 100
2019-12-06 21:00:00 11 16 Norte 38 Norte 0 -- -- 100
2019-12-06 20:00:00 11 14 Norte 42 Noroeste 1.2 -- -- 100
2019-12-06 19:00:00 10.6 12 Noroeste 37 Norte 0 -- -- 100
2019-12-06 18:00:00 10.6 19 Norte 40 Noroeste 0 -- -- 100
2019-12-06 17:00:00 11.2 19 Norte 44 Norte 0.8 -- -- 100
2019-12-06 16:00:00 10.8 18 Norte 39 Noroeste 2 -- -- 100
2019-12-06 15:00:00 11.3 24 Norte 44 Norte 0 -- -- 100
2019-12-06 14:00:00 11.7 17 Norte 33 Noroeste 0 -- -- 100
2019-12-06 13:00:00 11.7 19 Norte 33 Noroeste 0 -- -- 100
2019-12-06 12:00:00 12 15 Norte 32 Norte 0 -- -- 100
2019-12-06 11:00:00 11 14 Norte 37 Norte 0 -- -- 100
2019-12-06 10:00:00 10.8 17 Norte 39 Norte 0.6 -- -- 100
2019-12-06 09:00:00 10.2 8 Noroeste 18 Noroeste 0.2 -- -- 100
2019-12-06 08:00:00 9.8 10 Noroeste 26 Noroeste 0.2 -- -- 100
2019-12-06 07:00:00 9.8 15 Norte 33 Norte 0 -- -- 100
2019-12-06 06:00:00 9.9 23 Norte 41 Norte 1 -- -- 100
2019-12-06 05:00:00 9.9 15 Norte 34 Norte 0.8 -- -- 100
2019-12-06 04:00:00 9.7 11 Noroeste 32 Norte 0.2 -- -- 100
2019-12-06 03:00:00 9.9 12 Norte 33 Norte 1.2 -- -- 100
2019-12-06 02:00:00 10.1 19 Noroeste 46 Norte 1 -- -- 100
2019-12-06 01:00:00 10.4 23 Noroeste 45 Norte 5.2 -- -- 100
2019-12-06 00:00:00 10.5 20 Noroeste 46 Noroeste 0.2 -- -- 100
2019-12-05 23:00:00 9.8 23 Noroeste 40 Noroeste 1 -- -- 100
2019-12-05 22:00:00 9.8 23 Noroeste 43 Norte 10.6 -- -- 100
2019-12-05 21:00:00 9.4 13 Noroeste 38 Norte 0.6 -- -- 100
2019-12-05 20:00:00 9.9 21 Norte 45 Norte 0 -- -- 100
2019-12-05 19:00:00 9.8 16 Noroeste 46 Norte 0.6 -- -- 100
2019-12-05 18:00:00 9.5 25 Noroeste 41 Norte 4.6 -- -- 100
2019-12-05 17:00:00 9.3 18 Noroeste 49 Noroeste 0.2 -- -- 100
2019-12-05 16:00:00 10.2 21 Noroeste 48 Noroeste 0 -- -- 100
2019-12-05 15:00:00 10.4 22 Noroeste 42 Norte 1.6 -- -- 100
2019-12-05 14:00:00 10.3 22 Noroeste 44 Norte 6 -- -- 100
2019-12-05 13:00:00 10.2 26 Noroeste 46 Norte 1 -- -- 100
2019-12-05 12:00:00 11 26 Noroeste 51 Noroeste 1.2 -- -- 100
2019-12-05 11:00:00 10.8 24 Noroeste 41 Noroeste 0.2 -- -- 100
2019-12-05 10:00:00 10.7 21 Noroeste 36 Noroeste 0.6 -- -- 100
2019-12-05 09:00:00 10 14 Noroeste 34 Noroeste 0 -- -- 100
2019-12-05 08:00:00 9.3 22 Noroeste 44 Norte 0 -- -- 100
2019-12-05 07:00:00 8.8 18 Noroeste 45 Noroeste 0 -- -- 100
2019-12-05 06:00:00 9.5 21 Noroeste 45 Noroeste 0 -- -- 100
2019-12-05 05:00:00 9.7 18 Noroeste 42 Noroeste 2.2 -- -- 100
2019-12-05 04:00:00 10.1 20 Noroeste 49 Noroeste 9 -- -- 100
2019-12-05 03:00:00 10.9 19 Noroeste 37 Noroeste 10.8 -- -- 100
2019-12-05 02:00:00 11.5 24 Oeste 53 Oeste 6 -- -- 100
2019-12-05 01:00:00 11.5 20 Noroeste 36 Oeste 3.2 -- -- 99
2019-12-05 00:00:00 11.7 20 Oeste 35 Oeste 0 -- -- 93
2019-12-04 23:00:00 11.6 23 Oeste 36 Noroeste 0 -- -- 94
2019-12-04 22:00:00 11.5 21 Oeste 37 Oeste 0 -- -- 91
2019-12-04 21:00:00 11 20 Oeste 40 Noroeste 0 -- -- 98
2019-12-04 20:00:00 11.4 18 Noroeste 33 Noroeste 0 -- -- 99
2019-12-04 19:00:00 11.2 16 Noroeste 29 Norte 0 -- -- 99
2019-12-04 18:00:00 11.6 16 Noroeste 31 Noroeste 0 -- -- 98
2019-12-04 17:00:00 11.8 19 Noroeste 39 Noroeste 0 -- -- 96
2019-12-04 16:00:00 13.5 13 Noroeste 26 Oeste 0 -- -- 85
2019-12-04 15:00:00 14 13 Oeste 29 Oeste 0 -- -- 79
2019-12-04 14:00:00 12.9 13 Oeste 23 Oeste 0 -- -- 88
2019-12-04 13:00:00 11.5 12 Oeste 30 Noroeste 0.6 -- -- 97
2019-12-04 12:00:00 13.2 10 Noroeste 19 Oeste 0 -- -- 83
2019-12-04 11:00:00 13.3 10 Noroeste 19 Noroeste 0 -- -- 85
2019-12-04 10:00:00 11.2 12 Oeste 23 Oeste 0 -- -- 88
2019-12-04 09:00:00 9.9 13 Oeste 22 Oeste 0 -- -- 95
2019-12-04 08:00:00 9.9 15 Oeste 22 Oeste 0 -- -- 100
2019-12-04 07:00:00 9.3 10 Oeste 18 Norte 0.4 -- -- 100
2019-12-04 06:00:00 9.9 14 Noroeste 30 Noroeste 1.2 -- -- 99
2019-12-04 05:00:00 10 5 Noroeste 18 Oeste 0.2 -- -- 92
2019-12-04 04:00:00 9.7 6 Oeste 13 Oeste 0 -- -- 97
2019-12-04 03:00:00 10 6 Oeste 15 Oeste 0 -- -- 97
2019-12-04 02:00:00 10.3 7 Oeste 11 Oeste 0 -- -- 96
2019-12-04 01:00:00 10.2 5 Oeste 12 Oeste 0 -- -- 96
2019-12-04 00:00:00 9.9 8 Noroeste 16 Noroeste 0 -- -- 96
2019-12-03 23:00:00 10.5 9 Oeste 16 Oeste 0 -- -- 94
2019-12-03 22:00:00 10.4 9 Oeste 17 Noroeste 0 -- -- 94
2019-12-03 21:00:00 10.4 7 Noroeste 15 Oeste 0 -- -- 92
2019-12-03 20:00:00 9.9 9 Oeste 14 Noroeste 0 -- -- 94
2019-12-03 19:00:00 10.3 8 Noroeste 14 Oeste 0 -- -- 93
2019-12-03 18:00:00 10.7 8 Noroeste 16 Oeste 0 -- -- 94
2019-12-03 17:00:00 11.4 6 Noroeste 22 Noroeste 0 -- -- 93
2019-12-03 16:00:00 11.7 12 Noroeste 21 Noroeste 0 -- -- 93
2019-12-03 15:00:00 11.5 11 Noroeste 30 Norte 0.4 -- -- 96
2019-12-03 14:00:00 13.3 13 Noroeste 32 Noroeste 0 -- -- 89
2019-12-03 13:00:00 12.8 14 Norte 33 Norte 0 -- -- 91
2019-12-03 12:00:00 12.9 17 Noroeste 34 Norte 0 -- -- 83
2019-12-03 11:00:00 12.2 17 Noroeste 38 Noroeste 0 -- -- 93
2019-12-03 10:00:00 10.5 16 Noroeste 32 Norte 0 -- -- 100
2019-12-03 09:00:00 10.1 18 Noroeste 34 Noroeste 0 -- -- 100
2019-12-03 08:00:00 10.4 18 Noroeste 32 Noroeste 0.2 -- -- 100
2019-12-03 07:00:00 10.1 15 Noroeste 35 Noroeste 0 -- -- 100
2019-12-03 06:00:00 10.7 23 Norte 39 Norte 0 -- -- 100
2019-12-03 05:00:00 10.1 15 Noroeste 32 Noroeste 0.4 -- -- 100
2019-12-03 04:00:00 9.9 21 Noroeste 39 Noroeste 0.6 -- -- 100
2019-12-03 03:00:00 10.4 18 Oeste 27 Oeste 0 -- -- 100
2019-12-03 02:00:00 10.6 17 Noroeste 36 Norte 0.2 -- -- 100
2019-12-03 01:00:00 10.6 14 Noroeste 32 Noroeste 0.4 -- -- 100
2019-12-03 00:00:00 10.2 17 Noroeste 39 Norte 1.2 -- -- 100
2019-12-02 23:00:00 10.7 19 Noroeste 38 Noroeste 1 -- -- 100
2019-12-02 22:00:00 11.3 18 Noroeste 37 Noroeste 0 -- -- 100
2019-12-02 21:00:00 11.2 20 Noroeste 39 Noroeste 2.2 -- -- 100
2019-12-02 20:00:00 11.4 18 Noroeste 36 Noroeste 0.8 -- -- 99
2019-12-02 19:00:00 11.3 16 Oeste 31 Oeste 0 -- -- 99
2019-12-02 18:00:00 11.5 13 Noroeste 29 Oeste 0 -- -- 98
2019-12-02 17:00:00 12.4 15 Noroeste 28 Oeste 0 -- -- 96
2019-12-02 16:00:00 12.6 14 Noroeste 24 Noroeste 0 -- -- 93
2019-12-02 15:00:00 13.5 12 Noroeste 28 Noroeste 0 -- -- 89
2019-12-02 14:00:00 13 14 Noroeste 25 Noroeste 0 -- -- 96
2019-12-02 13:00:00 12.8 17 Noroeste 31 Noroeste 0 -- -- 99
2019-12-02 12:00:00 12.6 15 Noroeste 32 Noroeste 0 -- -- 99
2019-12-02 11:00:00 12.4 14 Noroeste 30 Noroeste 0.8 -- -- 99
2019-12-02 10:00:00 12.4 14 Noroeste 27 Noroeste 0.6 -- -- 99
2019-12-02 09:00:00 12.2 14 Noroeste 25 Norte 1 -- -- 98
2019-12-02 08:00:00 11.6 13 Oeste 28 Oeste 0.2 -- -- 94
2019-12-02 07:00:00 11 15 Oeste 24 Oeste 0 -- -- 98
2019-12-02 06:00:00 11.6 11 Oeste 22 Oeste 0 -- -- 98
2019-12-02 05:00:00 12 11 Noroeste 26 Noroeste 0 -- -- 98
2019-12-02 04:00:00 12.1 8 Noroeste 14 Noroeste 0.2 -- -- 97
2019-12-02 03:00:00 12.1 10 Oeste 18 Oeste 0 -- -- 93
2019-12-02 02:00:00 11.5 5 Sudoeste 10 Oeste 0 -- -- 93
2019-12-02 01:00:00 11.3 4 Oeste 9 Nordeste 0 -- -- 93
2019-12-02 00:00:00 11.3 6 Norte 13 Norte 0 -- -- 93
2019-12-01 23:00:00 10.6 5 Este 14 Este 0 -- -- 92
2019-12-01 22:00:00 11.4 14 Este 17 Este 0 -- -- 79
2019-12-01 21:00:00 10.9 11 Sudeste 18 Sudeste 0 -- -- 93
2019-12-01 20:00:00 12 6 Sudeste 12 Sudeste 0 -- -- 92
2019-12-01 19:00:00 12 4 Sudeste 10 Nordeste 0 -- -- 91
2019-12-01 18:00:00 12.7 4 Nordeste 12 Nordeste 0 -- -- 90
2019-12-01 17:00:00 14.7 3 Este 14 Norte 0 -- -- 84
2019-12-01 16:00:00 17.7 3 Este 10 Este 0 -- -- 72
2019-12-01 15:00:00 18.6 5 Noroeste 10 Oeste 0 -- -- 71
2019-12-01 14:00:00 18 3 Este 11 Sudeste 0 -- -- 74
2019-12-01 13:00:00 17.9 8 Sudeste 18 Sudeste 0 -- -- 75
2019-12-01 12:00:00 17.5 8 Sudeste 17 Este 0 -- -- 75
2019-12-01 11:00:00 14.5 12 Este 17 Este 0 -- -- 88
2019-12-01 10:00:00 12.8 8 Este 19 Sudeste 0 -- -- 96
2019-12-01 09:00:00 12 12 Sudeste 16 Sudeste 0 -- -- 96
2019-12-01 08:00:00 11.1 9 Sudeste 18 Este 0 -- -- 97
2019-12-01 07:00:00 10.9 12 Este 15 Este 0 -- -- 89
2019-12-01 06:00:00 11.8 9 Sudeste 13 Sudeste 0 -- -- 76
2019-12-01 05:00:00 14.1 10 Sudeste 15 Sudeste 0 -- -- 52
2019-12-01 04:00:00 13.6 13 Sudeste 14 Sudeste 0 -- -- 53
2019-12-01 03:00:00 15.4 8 Sudeste 13 Este 0 -- -- 35
2019-12-01 02:00:00 16 9 Sudeste 13 Este 0 -- -- 32
2019-12-01 01:00:00 16.2 10 Este 12 Este 0 -- -- 33
2019-12-01 00:00:00 15.4 8 Sudeste 10 Sudeste 0 -- -- 34
2019-11-30 23:00:00 16.7 7 Este 19 Sudeste 0 -- -- 31
2019-11-30 22:00:00 18.3 17 Sudeste 20 Sudeste 0 -- -- 27
2019-11-30 21:00:00 18.3 15 Sudeste 19 Sudeste 0 -- -- 27
2019-11-30 20:00:00 18.4 15 Sudeste 21 Sudeste 0 -- -- 28
2019-11-30 19:00:00 18.6 12 Sudeste 18 Sudeste 0 -- -- 30
2019-11-30 18:00:00 18.6 12 Sudeste 18 Sudeste 0 -- -- 43
2019-11-30 17:00:00 19.9 12 Sudeste 15 Sudeste 0 -- -- 63
2019-11-30 16:00:00 21.6 9 Sudeste 13 Sudeste 0 -- -- 62
2019-11-30 15:00:00 23.8 4 Sudeste 11 Sudeste 0 -- -- 51
2019-11-30 14:00:00 25.2 6 Sudeste 26 Este 0 -- -- 37
2019-11-30 13:00:00 25.1 12 Sudeste 26 Sudeste 0 -- -- 28
2019-11-30 12:00:00 24.5 17 Sudeste 32 Sudeste 0 -- -- 27
2019-11-30 11:00:00 24.4 21 Sudeste 34 Sudeste 0 -- -- 23
2019-11-30 10:00:00 23 22 Sudeste 32 Sudeste 0 -- -- 24
2019-11-30 09:00:00 20.3 19 Sudeste 31 Sudeste 0 -- -- 27
2019-11-30 08:00:00 18.5 20 Sudeste 31 Sudeste 0 -- -- 29
2019-11-30 07:00:00 18.2 23 Sudeste 31 Sudeste 0 -- -- 29
2019-11-30 06:00:00 18.4 22 Sudeste 33 Sudeste 0 -- -- 29
2019-11-30 05:00:00 18.4 22 Sudeste 36 Sudeste 0 -- -- 30
2019-11-30 04:00:00 18.6 19 Sudeste 31 Sudeste 0 -- -- 30
2019-11-30 03:00:00 18.6 20 Sudeste 32 Sudeste 0 -- -- 30
2019-11-30 02:00:00 18.3 17 Sudeste 24 Sudeste 0 -- -- 29
2019-11-30 01:00:00 17.8 17 Sudeste 25 Sudeste 0 -- -- 30
2019-11-30 00:00:00 17.7 15 Sudeste 26 Sudeste 0 -- -- 30
2019-11-29 23:00:00 16.6 17 Sudeste 22 Sudeste 0 -- -- 39
2019-11-29 22:00:00 18.3 13 Sudeste 26 Sudeste 0 -- -- 34
2019-11-29 21:00:00 19 14 Sudeste 21 Sudeste 0 -- -- 32
2019-11-29 20:00:00 18.5 9 Sudeste 16 Sudeste 0 -- -- 32
2019-11-29 19:00:00 18.7 0 Calma 12 Sudeste 0 -- -- 32
2019-11-29 18:00:00 19.7 4 Sudeste 13 Sudeste 0 -- -- 34
2019-11-29 17:00:00 24.2 4 Norte 17 Este 0 -- -- 35
2019-11-29 16:00:00 24 7 Sudeste 22 Este 0 -- -- 29
2019-11-29 15:00:00 23.4 17 Sudeste 33 Sudeste 0 -- -- 33
2019-11-29 14:00:00 23.6 20 Sudeste 35 Sudeste 0 -- -- 31
2019-11-29 13:00:00 23.5 17 Sudeste 42 Sudeste 0 -- -- 32
2019-11-29 12:00:00 22 30 Sudeste 41 Sudeste 0 -- -- 36
2019-11-29 11:00:00 21.3 26 Sudeste 52 Sudeste 0 -- -- 37
2019-11-29 10:00:00 20 35 Sudeste 51 Sudeste 0 -- -- 39
2019-11-29 09:00:00 18.6 31 Sudeste 44 Sudeste 0 -- -- 40
2019-11-29 08:00:00 17.2 24 Sudeste 42 Sudeste 0 -- -- 41
2019-11-29 07:00:00 16.6 18 Sudeste 30 Sudeste 0 -- -- 43
2019-11-29 06:00:00 16.2 12 Sudeste 21 Sudeste 0 -- -- 44
2019-11-29 05:00:00 16.7 11 Sudeste 19 Sudeste 0 -- -- 44
2019-11-29 04:00:00 16.2 12 Sudeste 22 Sudeste 0 -- -- 46
2019-11-29 03:00:00 15.6 12 Sudeste 15 Sudeste 0 -- -- 49
2019-11-29 02:00:00 16.3 9 Este 12 Sudeste 0 -- -- 47
2019-11-29 01:00:00 14.7 12 Sudeste 13 Sudeste 0 -- -- 58
2019-11-29 00:00:00 15.2 12 Sudeste 20 Sudeste 0 -- -- 60
2019-11-28 23:00:00 14.8 14 Sudeste 18 Este 0 -- -- 67
2019-11-28 22:00:00 15.2 16 Sudeste 22 Sudeste 0 -- -- 66
2019-11-28 21:00:00 14.7 17 Sudeste 22 Sudeste 0 -- -- 64
2019-11-28 20:00:00 15.1 16 Sudeste 23 Sudeste 0 -- -- 65
2019-11-28 19:00:00 15.5 15 Sudeste 20 Sudeste 0 -- -- 66
2019-11-28 18:00:00 15.5 11 Sudeste 19 Sudeste 0 -- -- 68
2019-11-28 17:00:00 15.6 10 Sudeste 17 Sudeste 0 -- -- 89
2019-11-28 16:00:00 16.6 12 Sudeste 18 Este 0 -- -- 84
2019-11-28 15:00:00 17.8 12 Sudeste 26 Este 0 -- -- 78
2019-11-28 14:00:00 18.1 15 Este 24 Sudeste 0 -- -- 67
2019-11-28 13:00:00 18.4 14 Sudeste 25 Este 0 -- -- 67
2019-11-28 12:00:00 19.3 15 Este 27 Sudeste 0 -- -- 58
2019-11-28 11:00:00 17.4 13 Sudeste 21 Sudeste 0 -- -- 71
2019-11-28 10:00:00 16.4 15 Sudeste 22 Sudeste 0 -- -- 66
2019-11-28 09:00:00 12.6 14 Sudeste 20 Sudeste 0 -- -- 100
2019-11-28 08:00:00 11.5 18 Sudeste 21 Sudeste 0 -- -- 100
2019-11-28 07:00:00 11.3 18 Sudeste 24 Sudeste 0 -- -- 100
2019-11-28 06:00:00 11.3 19 Sudeste 24 Este 0 -- -- 100
2019-11-28 05:00:00 11.4 19 Sudeste 23 Este 0 -- -- 100
2019-11-28 04:00:00 11.1 15 Sudeste 19 Este 0 -- -- 100
2019-11-28 03:00:00 11.2 13 Sudeste 18 Sudeste 0 -- -- 100
2019-11-28 02:00:00 11.2 12 Este 15 Este 0 -- -- 100
2019-11-28 01:00:00 11.8 10 Sudeste 16 Sudeste 0 -- -- 100
2019-11-28 00:00:00 12 8 Este 13 Sudeste 0 -- -- 100
2019-11-27 23:00:00 12 7 Sudeste 10 Sudeste 0 -- -- 100
2019-11-27 22:00:00 12.1 7 Sudeste 12 Sudeste 0 -- -- 100
2019-11-27 21:00:00 12 10 Sudeste 17 Nordeste 0 -- -- 100
2019-11-27 20:00:00 12.3 3 Este 10 Nordeste 0 -- -- 100
2019-11-27 19:00:00 12.4 7 Sudeste 10 Sudeste 0 -- -- 99
2019-11-27 18:00:00 13.4 5 Sudeste 9 Sudeste 0 -- -- 97
2019-11-27 17:00:00 15.5 4 Sudeste 10 Sudeste 0 -- -- 89
2019-11-27 16:00:00 17.5 5 Sudeste 13 Este 0 -- -- 82
2019-11-27 15:00:00 15.6 8 Este 19 Este 0 -- -- 89
2019-11-27 14:00:00 16.2 11 Este 19 Este 0 -- -- 87
2019-11-27 13:00:00 16.2 13 Este 20 Este 0 -- -- 88
2019-11-27 05:00:00 -- -- -- -- -- -- -- -- --
2019-11-27 04:00:00 12.1 0 Calma 10 Sudeste 0 -- -- 100
2019-11-27 03:00:00 12 4 Nordeste 10 Nordeste 0 -- -- 100
2019-11-27 02:00:00 12.2 2 Nordeste 8 Este 0 -- -- 100
2019-11-27 01:00:00 12.4 5 Este 12 Este 0 -- -- 100
2019-11-27 00:00:00 12.4 7 Este 14 Este 0 -- -- 100
2019-11-26 23:00:00 12.3 9 Este 19 Este 0 -- -- 100
2019-11-26 22:00:00 12.4 4 Este 8 Nordeste 0 -- -- 100
2019-11-26 21:00:00 12.4 3 Nordeste 8 Este 0 -- -- 100
2019-11-26 20:00:00 12.6 2 Norte 10 Sudeste 0 -- -- 99
2019-11-26 19:00:00 12.7 2 Este 8 Noroeste 0 -- -- 99
2019-11-26 18:00:00 13 3 Norte 9 Norte 0 -- -- 98
2019-11-26 17:00:00 13.3 4 Norte 13 Noroeste 0 -- -- 97
2019-11-26 16:00:00 13.9 4 Norte 13 Noroeste 0 -- -- 97
2019-11-26 15:00:00 14.8 6 Norte 14 Noroeste 0 -- -- 94
2019-11-26 14:00:00 19.7 4 Sudeste 15 Este 0 -- -- 74
2019-11-26 13:00:00 17.8 8 Sudeste 17 Sudeste 0 -- -- 82
2019-11-26 12:00:00 15.9 5 Este 13 Este 0 -- -- 88
2019-11-26 11:00:00 15.1 10 Este 20 Sudeste 0 -- -- 98
2019-11-26 10:00:00 12.7 15 Sudeste 22 Sudeste 0 -- -- 100
2019-11-26 09:00:00 12.1 8 Sudeste 18 Sudeste 0 -- -- 100
2019-11-26 08:00:00 11.8 9 Sudeste 20 Sudeste 0 -- -- 100
2019-11-26 07:00:00 11.9 8 Sudeste 21 Sudeste 0 -- -- 100
2019-11-26 06:00:00 11.5 15 Sudeste 20 Sudeste 0.2 -- -- 100
2019-11-26 05:00:00 11.8 12 Sudeste 20 Sudeste 0 -- -- 100
2019-11-26 04:00:00 11.9 4 Sudeste 17 Este 0 -- -- 100
2019-11-26 03:00:00 11.9 6 Sudeste 12 Sudeste 0 -- -- 100
2019-11-26 02:00:00 11.9 7 Sudeste 14 Sudeste 0 -- -- 100
2019-11-26 01:00:00 12 3 Este 14 Sudeste 0 -- -- 100
2019-11-26 00:00:00 11.8 10 Sudeste 16 Sudeste 0 -- -- 100
2019-11-25 23:00:00 12.2 5 Este 11 Este 0 -- -- 100
2019-11-25 22:00:00 12.2 4 Sudeste 8 Sur 0 -- -- 99
2019-11-25 21:00:00 12.1 3 Nordeste 14 Este 0 -- -- 99
2019-11-25 20:00:00 12.2 6 Sudeste 13 Sudeste 0 -- -- 98
2019-11-25 19:00:00 12.1 4 Este 11 Nordeste 0 -- -- 97
2019-11-25 18:00:00 12.3 3 Nordeste 10 Nordeste 0 -- -- 95
2019-11-25 17:00:00 13.2 4 Norte 13 Norte 0 -- -- 93
2019-11-25 16:00:00 13.3 8 Norte 13 Norte 0 -- -- 93
2019-11-25 15:00:00 15.1 3 Nordeste 12 Este 0 -- -- 87
2019-11-25 14:00:00 15.6 7 Este 14 Este 0 -- -- 84
2019-11-25 13:00:00 15.9 7 Este 13 Este 0 -- -- 84
2019-11-25 12:00:00 14.3 6 Este 15 Este 0 -- -- 90
2019-11-25 11:00:00 13.7 11 Sudeste 20 Este 0 -- -- 90
2019-11-25 10:00:00 13 11 Sudeste 19 Sudeste 0 -- -- 93
2019-11-25 09:00:00 12.2 8 Sudeste 17 Sudeste 0 -- -- 95
2019-11-25 08:00:00 10.9 7 Sudeste 12 Sudeste 0 -- -- 98
2019-11-25 07:00:00 10.8 2 Nordeste 7 Nordeste 0 -- -- 98
2019-11-25 06:00:00 10.5 2 Sudeste 10 Este 0 -- -- 99
2019-11-25 05:00:00 10.5 6 Este 15 Nordeste 0 -- -- 99
2019-11-25 04:00:00 10 8 Sudeste 17 Este 0 -- -- 97
2019-11-25 03:00:00 11.1 7 Este 14 Este 0 -- -- 94
2019-11-25 02:00:00 11.4 6 Sudeste 17 Este 0 -- -- 94
2019-11-25 01:00:00 11.4 8 Este 15 Sudeste 0 -- -- 94
2019-11-25 00:00:00 11.5 5 Sudeste 18 Sudeste 0 -- -- 94
2019-11-24 23:00:00 11.8 4 Este 13 Este 0 -- -- 95
2019-11-24 22:00:00 11.7 5 Este 9 Este 0 -- -- 95
2019-11-24 21:00:00 11 4 Nordeste 10 Norte 0 -- -- 97
2019-11-24 20:00:00 12.2 6 Nordeste 15 Nordeste 0 -- -- 97
2019-11-24 19:00:00 12.2 0 Calma 13 Norte 0 -- -- 97
2019-11-24 18:00:00 12.5 4 Sudoeste 11 Norte 0 -- -- 95
2019-11-24 17:00:00 13.6 3 Noroeste 15 Norte 0 -- -- 92
2019-11-24 16:00:00 14.4 6 Norte 14 Norte 0 -- -- 90
2019-11-24 15:00:00 17.2 6 Norte 18 Norte 0 -- -- 81
2019-11-24 14:00:00 16.3 6 Noroeste 13 Norte 0 -- -- 87
2019-11-24 13:00:00 14.9 6 Noroeste 13 Noroeste 0 -- -- 96
2019-11-24 12:00:00 15.3 6 Norte 13 Norte 0 -- -- 97
2019-11-24 11:00:00 14.3 4 Norte 15 Nordeste 0 -- -- 99
2019-11-24 10:00:00 13.5 7 Norte 14 Norte 0.4 -- -- 100
2019-11-24 09:00:00 13.5 2 Noroeste 17 Norte 0.4 -- -- 100
2019-11-24 08:00:00 12.8 6 Norte 22 Norte 1 -- -- 100
2019-11-24 07:00:00 12.7 3 Sudoeste 10 Sudoeste 0.2 -- -- 100
2019-11-24 06:00:00 12.7 7 Sudoeste 11 Sudoeste 0.2 -- -- 100
2019-11-24 05:00:00 12.5 4 Noroeste 12 Noroeste 0 -- -- 100
2019-11-24 04:00:00 12.6 3 Sudoeste 16 Norte 0 -- -- 100
2019-11-24 03:00:00 12.9 7 Norte 15 Norte 0.2 -- -- 100
2019-11-24 02:00:00 12.8 6 Oeste 16 Oeste 0 -- -- 100
2019-11-24 01:00:00 13 9 Noroeste 17 Noroeste 0 -- -- 100
2019-11-24 00:00:00 13 9 Norte 23 Norte 0 -- -- 100
2019-11-23 23:00:00 12.9 7 Oeste 16 Oeste 0 -- -- 100
2019-11-23 22:00:00 12.8 6 Noroeste 16 Noroeste 0 -- -- 100
2019-11-23 21:00:00 12.3 6 Noroeste 17 Noroeste 0 -- -- 100
2019-11-23 20:00:00 13.6 9 Norte 18 Norte 0 -- -- 100
2019-11-23 19:00:00 13.8 8 Norte 21 Norte 0.2 -- -- 100
2019-11-23 18:00:00 14.3 10 Noroeste 25 Noroeste 0 -- -- 100
2019-11-23 17:00:00 14.6 12 Norte 30 Norte 1.4 -- -- 100
2019-11-23 16:00:00 15.1 16 Norte 33 Noroeste 2.2 -- -- 100
2019-11-23 15:00:00 15.1 12 Noroeste 24 Noroeste 0 -- -- 100
2019-11-23 14:00:00 15.4 11 Noroeste 22 Noroeste 0 -- -- 99
2019-11-23 13:00:00 15.4 13 Noroeste 23 Norte 0.2 -- -- 100
2019-11-23 12:00:00 14.9 11 Noroeste 23 Noroeste 0 -- -- 100
2019-11-23 11:00:00 15 13 Noroeste 26 Oeste 0 -- -- 100
2019-11-23 10:00:00 14.6 14 Noroeste 30 Noroeste 0.2 -- -- 100
2019-11-23 09:00:00 14.7 18 Noroeste 30 Oeste 1 -- -- 100
2019-11-23 08:00:00 14.1 17 Noroeste 30 Noroeste 1.2 -- -- 100
2019-11-23 07:00:00 14.6 18 Noroeste 32 Noroeste 0.6 -- -- 100
2019-11-23 06:00:00 14.5 18 Noroeste 28 Noroeste 0 -- -- 100
2019-11-23 05:00:00 14.5 15 Noroeste 27 Noroeste 0 -- -- 99
2019-11-23 04:00:00 14.5 17 Oeste 25 Oeste 0 -- -- 98
2019-11-23 03:00:00 14.5 16 Oeste 26 Oeste 0 -- -- 97
2019-11-23 02:00:00 14.5 19 Oeste 30 Oeste 0 -- -- 97
2019-11-23 01:00:00 14.3 15 Oeste 23 Oeste 0 -- -- 98
2019-11-23 00:00:00 14.3 13 Noroeste 23 Oeste 0 -- -- 97
2019-11-22 23:00:00 14.4 12 Noroeste 22 Noroeste 0 -- -- 96
2019-11-22 22:00:00 14.1 12 Oeste 19 Oeste 0 -- -- 95
2019-11-22 21:00:00 14.4 13 Oeste 19 Oeste 0 -- -- 95
2019-11-22 20:00:00 14.4 9 Noroeste 17 Oeste 0 -- -- 94
2019-11-22 19:00:00 14.4 9 Noroeste 17 Oeste 0 -- -- 92
2019-11-22 18:00:00 14.7 6 Oeste 11 Noroeste 0 -- -- 96
2019-11-22 17:00:00 18.8 9 Noroeste 15 Noroeste 0 -- -- 77
2019-11-22 16:00:00 18.5 9 Noroeste 19 Noroeste 0 -- -- 77
2019-11-22 15:00:00 17.7 12 Noroeste 22 Noroeste 0 -- -- 85
2019-11-22 14:00:00 15.9 12 Noroeste 19 Noroeste 0 -- -- 92
2019-11-22 13:00:00 16.1 10 Noroeste 17 Noroeste 0 -- -- 94
2019-11-22 12:00:00 16.3 10 Noroeste 22 Noroeste 0 -- -- 97
2019-11-22 11:00:00 15.6 10 Noroeste 18 Noroeste 0 -- -- 99
2019-11-22 10:00:00 14.7 10 Noroeste 17 Noroeste 1.2 -- -- 99
2019-11-22 09:00:00 14.3 8 Noroeste 17 Oeste 1.4 -- -- 99
2019-11-22 08:00:00 13.7 8 Noroeste 21 Oeste 0 -- -- 96
2019-11-22 07:00:00 13.9 13 Oeste 25 Oeste 0 -- -- 97
2019-11-22 06:00:00 13.7 13 Oeste 26 Oeste 0 -- -- 96
2019-11-22 05:00:00 14.1 14 Oeste 30 Oeste 0 -- -- 93
2019-11-22 04:00:00 13.8 18 Oeste 31 Oeste 0 -- -- 91
2019-11-22 03:00:00 14.2 17 Oeste 25 Oeste 0 -- -- 90
2019-11-22 02:00:00 14.3 15 Oeste 26 Oeste 0 -- -- 91
2019-11-22 01:00:00 14.5 14 Oeste 22 Oeste 0 -- -- 90
2019-11-22 00:00:00 14.7 9 Noroeste 25 Sudoeste 0 -- -- 88
2019-11-21 23:00:00 14.6 15 Oeste 29 Oeste 0 -- -- 89
2019-11-21 22:00:00 14.3 15 Oeste 31 Oeste 0 -- -- 91
2019-11-21 21:00:00 14.6 20 Oeste 33 Oeste 0 -- -- 88
2019-11-21 20:00:00 14 13 Oeste 22 Oeste 0 -- -- 89
2019-11-21 19:00:00 14.1 14 Oeste 28 Oeste 0 -- -- 87
2019-11-21 18:00:00 14.5 16 Oeste 25 Noroeste 0 -- -- 85
2019-11-21 17:00:00 16.8 3 Sudeste 12 Norte 0 -- -- 84
2019-11-21 16:00:00 15.4 5 Norte 12 Noroeste 0 -- -- 91
2019-11-21 15:00:00 16.2 3 Este 10 Sudeste 0 -- -- 89
2019-11-21 14:00:00 15.3 2 Nordeste 13 Norte 0 -- -- 91
2019-11-21 13:00:00 15.5 7 Norte 12 Noroeste 0 -- -- 91
2019-11-21 12:00:00 16.3 3 Norte 9 Norte 0 -- -- 89
2019-11-21 11:00:00 16.3 4 Nordeste 10 Sudeste 0 -- -- 88
2019-11-21 10:00:00 14 3 Noroeste 6 Noroeste 0 -- -- 98
2019-11-21 09:00:00 13.5 3 Noroeste 12 Norte 0 -- -- 98
2019-11-21 08:00:00 12.2 3 Noroeste 10 Noroeste 0 -- -- 100
2019-11-21 07:00:00 -- -- -- -- -- -- -- -- --
2019-11-21 06:00:00 -- -- -- -- -- -- -- -- --
2019-11-21 05:00:00 -- -- -- -- -- -- -- -- --
2019-11-21 04:00:00 -- -- -- -- -- -- -- -- --
2019-11-21 03:00:00 -- -- -- -- -- -- -- -- --
2019-11-21 02:00:00 -- -- -- -- -- -- -- -- --
2019-11-21 01:00:00 -- -- -- -- -- -- -- -- --
2019-11-21 00:00:00 -- -- -- -- -- -- -- -- --
2019-11-20 23:00:00 -- -- -- -- -- -- -- -- --
2019-11-20 22:00:00 -- -- -- -- -- -- -- -- --
2019-11-20 21:00:00 -- -- -- -- -- -- -- -- --
2019-11-20 20:00:00 -- -- -- -- -- -- -- -- --
2019-11-20 19:00:00 12.6 3 Sudoeste 10 Sudeste 0 -- -- 97
2019-11-20 18:00:00 13.2 9 Este 15 Este 0 -- -- 95
2019-11-20 17:00:00 14.6 10 Este 17 Este 0 -- -- 90
2019-11-20 16:00:00 17.1 8 Este 14 Este 0 -- -- 78
2019-11-20 15:00:00 17.3 3 Este 11 Nordeste 0 -- -- 75
2019-11-20 14:00:00 16.2 4 Nordeste 9 Nordeste 0 -- -- 81
2019-11-20 13:00:00 16.4 6 Norte 12 Noroeste 0 -- -- 80
2019-11-20 12:00:00 17.8 4 Este 11 Sudeste 0 -- -- 72
2019-11-20 11:00:00 16.4 3 Norte 6 Norte 0 -- -- 70
2019-11-20 10:00:00 15.3 3 Norte 8 Oeste 0 -- -- 77
2019-11-20 09:00:00 12.7 6 Noroeste 13 Oeste 0 -- -- 86
2019-11-20 08:00:00 12 6 Oeste 12 Noroeste 0 -- -- 86
2019-11-20 07:00:00 11.2 8 Oeste 15 Oeste 0 -- -- 90
2019-11-20 06:00:00 10.7 8 Oeste 18 Oeste 0 -- -- 93
2019-11-20 05:00:00 10.8 12 Oeste 22 Oeste 0 -- -- 91
2019-11-20 04:00:00 10.8 15 Oeste 22 Oeste 0 -- -- 89
2019-11-20 03:00:00 11.1 12 Oeste 18 Oeste 0 -- -- 90
2019-11-20 02:00:00 10.9 12 Oeste 21 Oeste 0.2 -- -- 93
2019-11-20 01:00:00 10.4 13 Oeste 19 Oeste 0 -- -- 97
2019-11-20 00:00:00 10.1 12 Oeste 17 Oeste 0 -- -- 100
2019-11-19 23:00:00 10.4 12 Oeste 18 Oeste 0 -- -- 100
2019-11-19 22:00:00 10.9 12 Oeste 20 Oeste 0 -- -- 100
2019-11-19 21:00:00 11.9 10 Oeste 17 Oeste 0 -- -- 100
2019-11-19 20:00:00 11.8 8 Oeste 15 Oeste 0 -- -- 100
2019-11-19 19:00:00 11.9 7 Oeste 13 Oeste 0 -- -- 100
2019-11-19 18:00:00 12.3 7 Noroeste 21 Noroeste 0.8 -- -- 99
2019-11-19 17:00:00 14 9 Noroeste 17 Norte 0 -- -- 97
2019-11-19 16:00:00 13.5 9 Noroeste 18 Noroeste 0 -- -- 99
2019-11-19 15:00:00 13.4 9 Noroeste 22 Noroeste 0.2 -- -- 100
2019-11-19 14:00:00 13.4 13 Norte 24 Noroeste 0.2 -- -- 98
2019-11-19 13:00:00 13.4 13 Noroeste 26 Norte 1.8 -- -- 100
2019-11-19 12:00:00 13.3 12 Noroeste 26 Noroeste 0.6 -- -- 99
2019-11-19 11:00:00 12.9 11 Noroeste 24 Norte 0.2 -- -- 99
2019-11-19 10:00:00 13 13 Noroeste 23 Norte 0.6 -- -- 99
2019-11-19 09:00:00 12.7 8 Oeste 18 Oeste 0 -- -- 97
2019-11-19 08:00:00 11.9 8 Oeste 18 Oeste 0 -- -- 98
2019-11-19 07:00:00 11.2 8 Noroeste 15 Oeste 0 -- -- 95
2019-11-19 06:00:00 10.3 5 Sudoeste 9 Sudoeste 0 -- -- 98
2019-11-19 05:00:00 10.4 5 Sudoeste 10 Oeste 0 -- -- 98
2019-11-19 04:00:00 10.9 6 Noroeste 11 Norte 0 -- -- 97
2019-11-19 03:00:00 10.4 6 Sudoeste 12 Sudoeste 0 -- -- 98
2019-11-19 02:00:00 10.9 5 Oeste 13 Oeste 0 -- -- 98
2019-11-19 01:00:00 10.9 2 Oeste 10 Sudoeste 0.2 -- -- 95
2019-11-19 00:00:00 11.1 4 Sudoeste 8 Sudoeste 0 -- -- 94
2019-11-18 23:00:00 10.8 2 Nordeste 7 Sudoeste 0 -- -- 94
2019-11-18 22:00:00 10.7 2 Oeste 7 Nordeste 0 -- -- 98
2019-11-18 21:00:00 11.3 2 Sudeste 17 Norte 0 -- -- 97
2019-11-18 20:00:00 11.6 7 Noroeste 14 Norte 0 -- -- 97
2019-11-18 19:00:00 11.4 4 Norte 9 Este 0 -- -- 93
2019-11-18 18:00:00 11.7 4 Este 13 Nordeste 0 -- -- 89
2019-11-18 17:00:00 12.2 4 Este 14 Nordeste 0 -- -- 85
2019-11-18 16:00:00 14.1 9 Nordeste 16 Este 0 -- -- 74
2019-11-18 15:00:00 17.1 8 Este 17 Este 0 -- -- 66
2019-11-18 14:00:00 15.2 7 Este 21 Norte 0 -- -- 73
2019-11-18 13:00:00 14.4 7 Nordeste 20 Este 0 -- -- 79
2019-11-18 12:00:00 14.3 7 Este 16 Nordeste 0 -- -- 81
2019-11-18 11:00:00 14.1 7 Este 17 Este 0 -- -- 82
2019-11-18 10:00:00 11.8 8 Sudeste 14 Este 0 -- -- 96
2019-11-18 09:00:00 11.8 5 Sudeste 11 Sudeste 0.2 -- -- 100
2019-11-18 08:00:00 10.2 4 Sudeste 11 Este 0 -- -- 100
2019-11-18 07:00:00 10.3 5 Este 16 Nordeste 0 -- -- 100
2019-11-18 06:00:00 10.1 6 Nordeste 13 Nordeste 0 -- -- 100
2019-11-18 05:00:00 10.1 6 Nordeste 13 Nordeste 0 -- -- 100
2019-11-18 04:00:00 9.9 6 Nordeste 13 Nordeste 0 -- -- 100
2019-11-18 03:00:00 9.6 5 Este 12 Este 0 -- -- 100
2019-11-18 02:00:00 9.6 3 Nordeste 15 Este 0 -- -- 100
2019-11-18 01:00:00 9.5 7 Este 13 Este 0 -- -- 100
2019-11-18 00:00:00 10 4 Sudeste 17 Sudeste 0 -- -- 100
2019-11-17 23:00:00 10.2 5 Nordeste 21 Este 0 -- -- 100
2019-11-17 22:00:00 10.4 6 Nordeste 19 Este 0 -- -- 100
2019-11-17 21:00:00 10.5 9 Este 23 Este 0 -- -- 100
2019-11-17 20:00:00 10.6 8 Este 22 Este 0 -- -- 100
2019-11-17 19:00:00 10.6 6 Este 17 Este 0.4 -- -- 100
2019-11-17 18:00:00 10.4 8 Este 15 Este 0 -- -- 99
2019-11-17 17:00:00 10.9 3 Nordeste 15 Este 0.2 -- -- 98
2019-11-17 16:00:00 11.3 10 Sudeste 19 Norte 0 -- -- 97
2019-11-17 15:00:00 10.9 11 Nordeste 23 Nordeste 0 -- -- 98
2019-11-17 14:00:00 10.5 11 Nordeste 31 Nordeste 1.6 -- -- 98
2019-11-17 13:00:00 11.5 12 Este 24 Este 0 -- -- 87
2019-11-17 12:00:00 10.5 11 Este 28 Nordeste 0 -- -- 99
2019-11-17 11:00:00 10.5 6 Este 18 Este 0.2 -- -- 99
2019-11-17 10:00:00 10.3 9 Nordeste 24 Norte 1 -- -- 100
2019-11-17 09:00:00 10 4 Este 19 Norte 0.4 -- -- 100
2019-11-17 08:00:00 9.7 7 Sudeste 21 Nordeste 1 -- -- 100
2019-11-17 07:00:00 9.8 8 Nordeste 19 Nordeste 1 -- -- 100
2019-11-17 06:00:00 9.7 6 Nordeste 18 Nordeste 0.6 -- -- 100
2019-11-17 05:00:00 9.7 6 Nordeste 28 Este 0.4 -- -- 100
2019-11-17 04:00:00 10.3 4 Este 23 Este 0.6 -- -- 100
2019-11-17 03:00:00 10.5 3 Este 29 Nordeste 0.4 -- -- 100
2019-11-17 02:00:00 10 5 Nordeste 19 Este 0.6 -- -- 100
2019-11-17 01:00:00 10.3 4 Este 22 Este 0.4 -- -- 100
2019-11-17 00:00:00 10.6 10 Nordeste 21 Nordeste 0.8 -- -- 100
2019-11-16 23:00:00 10.5 6 Nordeste 30 Nordeste 0.2 -- -- 100
2019-11-16 22:00:00 10.6 12 Nordeste 22 Nordeste 0 -- -- 100
2019-11-16 21:00:00 10.6 11 Nordeste 35 Norte 0.2 -- -- 99
2019-11-16 20:00:00 10.8 10 Nordeste 28 Nordeste 1.4 -- -- 99
2019-11-16 19:00:00 10.9 10 Nordeste 26 Nordeste 0 -- -- 96
2019-11-16 18:00:00 10.6 9 Norte 37 Norte 0.2 -- -- 94
2019-11-16 17:00:00 11.5 9 Norte 30 Norte 0 -- -- 90
2019-11-16 16:00:00 12 14 Norte 25 Norte 0 -- -- 86
2019-11-16 15:00:00 13 10 Norte 29 Norte 0 -- -- 79
2019-11-16 14:00:00 13.5 15 Norte 31 Norte 0 -- -- 79
2019-11-16 13:00:00 13.6 12 Norte 38 Norte 0 -- -- 85
2019-11-16 12:00:00 12.3 17 Norte 35 Norte 0 -- -- 93
2019-11-16 11:00:00 11.5 13 Norte 33 Norte 0 -- -- 100
2019-11-16 10:00:00 10.7 14 Norte 25 Norte 0 -- -- 100
2019-11-16 09:00:00 10 12 Norte 34 Norte 1.2 -- -- 100
2019-11-16 08:00:00 10.7 14 Norte 35 Norte 0.6 -- -- 100
2019-11-16 07:00:00 10.4 18 Norte 34 Norte 0.2 -- -- 100
2019-11-16 06:00:00 10.3 16 Norte 31 Norte 0.2 -- -- 100
2019-11-16 05:00:00 10.3 14 Norte 44 Norte 0.2 -- -- 100
2019-11-16 04:00:00 10.4 14 Norte 34 Norte 0.4 -- -- 100
2019-11-16 03:00:00 10.2 7 Norte 29 Norte 0.2 -- -- 100
2019-11-16 02:00:00 10.4 18 Norte 35 Norte 0.6 -- -- 100
2019-11-16 01:00:00 10.4 10 Norte 39 Norte 2 -- -- 100
2019-11-16 00:00:00 10.3 8 Norte 33 Norte 0 -- -- 100